Time;durP1;ratioP1;P1;durP2;ratioP2;P2;SDS_P1;SDS_P2;PMS_P1;PMS_P2;Temp;Humidity;BMP_temperature;BMP_pressure;BME280_temperature;BME280_humidity;BME280_pressure;Samples;Min_cycle;Max_cycle;Signal;HPM_P1;HPM_P2
2021/04/27 00:00:24;;;;;;;4.67;2.80;;;8.70;99.90;;;;;;5093011;28;20655;-68
2021/04/27 00:02:50;;;;;;;4.03;2.77;;;8.40;99.90;;;;;;5092954;28;20184;-68
2021/04/27 00:05:17;;;;;;;3.50;2.33;;;8.50;99.90;;;;;;5092618;28;20193;-68
2021/04/27 00:07:43;;;;;;;4.25;2.75;;;8.50;99.90;;;;;;5092553;28;20176;-67
2021/04/27 00:10:13;;;;;;;2.90;2.27;;;8.20;99.90;;;;;;5092949;28;20164;-68
2021/04/27 00:12:39;;;;;;;3.57;2.40;;;8.30;99.90;;;;;;5092607;28;20401;-68
2021/04/27 00:15:25;;;;;;;6.87;3.00;;;8.40;99.90;;;;;;5092393;28;20476;-67
2021/04/27 00:17:52;;;;;;;5.80;2.83;;;8.40;99.90;;;;;;5092573;28;20382;-68
2021/04/27 00:20:21;;;;;;;3.13;2.67;;;8.50;99.90;;;;;;5092887;28;20458;-67
2021/04/27 00:22:46;;;;;;;5.07;2.73;;;8.50;99.90;;;;;;5092485;28;20406;-68
2021/04/27 00:25:12;;;;;;;3.10;2.33;;;8.60;99.90;;;;;;5092716;28;20793;-68
2021/04/27 00:27:38;;;;;;;2.27;2.07;;;8.30;99.90;;;;;;5092521;28;20174;-67
2021/04/27 00:30:06;;;;;;;4.20;2.40;;;8.20;99.90;;;;;;5092510;28;20634;-67
2021/04/27 00:32:32;;;;;;;4.60;2.77;;;8.20;99.90;;;;;;5092483;28;20428;-68
2021/04/27 00:34:58;;;;;;;3.00;2.40;;;8.20;99.90;;;;;;5092221;28;20431;-68
2021/04/27 00:37:23;;;;;;;5.60;3.27;;;8.30;99.90;;;;;;5095415;28;20183;-67
2021/04/27 00:39:49;;;;;;;2.60;2.40;;;8.60;99.90;;;;;;5096151;28;20642;-67
2021/04/27 00:42:15;;;;;;;7.30;2.70;;;8.30;99.90;;;;;;5096026;28;20425;-67
2021/04/27 00:44:40;;;;;;;4.37;2.50;;;8.50;99.90;;;;;;5096923;28;20188;-68
2021/04/27 00:47:06;;;;;;;3.33;2.70;;;8.70;99.90;;;;;;5095925;28;20178;-66
2021/04/27 00:49:31;;;;;;;8.07;2.90;;;8.50;99.90;;;;;;5095862;28;20688;-67
2021/04/27 00:51:57;;;;;;;5.20;2.53;;;8.70;99.90;;;;;;5095845;28;20302;-67
2021/04/27 00:54:23;;;;;;;3.50;2.47;;;8.70;99.90;;;;;;5095963;28;20187;-67
2021/04/27 00:56:49;;;;;;;2.77;2.17;;;8.60;99.90;;;;;;5094334;28;20279;-67
2021/04/27 00:59:14;;;;;;;4.47;2.20;;;8.70;99.90;;;;;;5095651;28;20406;-68
2021/04/27 01:01:40;;;;;;;2.47;2.00;;;8.60;99.90;;;;;;5095822;28;20244;-68
2021/04/27 01:04:06;;;;;;;5.40;2.30;;;8.60;99.90;;;;;;5095360;28;20245;-67
2021/04/27 01:06:31;;;;;;;5.23;2.60;;;8.50;99.90;;;;;;5095375;28;20160;-67
2021/04/27 01:09:04;;;;;;;3.37;2.33;;;8.50;99.90;;;;;;5095221;28;20532;-67
2021/04/27 01:11:39;;;;;;;7.60;2.47;;;8.40;99.90;;;;;;5095597;28;20219;-67
2021/04/27 01:14:12;;;;;;;3.63;2.47;;;8.40;99.90;;;;;;5095287;28;20433;-67
2021/04/27 01:16:45;;;;;;;3.97;2.40;;;8.40;99.90;;;;;;5095061;28;20540;-68
2021/04/27 01:19:16;;;;;;;3.30;2.20;;;8.70;99.90;;;;;;5095046;28;20402;-68
2021/04/27 01:21:42;;;;;;;4.10;2.20;;;8.60;99.90;;;;;;5095648;28;20944;-67
2021/04/27 01:24:31;;;;;;;4.00;2.27;;;8.60;99.90;;;;;;5095123;28;20422;-67
2021/04/27 01:26:58;;;;;;;5.75;2.80;;;8.50;99.90;;;;;;5095363;28;20934;-68
2021/04/27 01:29:28;;;;;;;4.10;2.20;;;8.40;99.90;;;;;;5095215;28;20258;-68
2021/04/27 01:31:56;;;;;;;3.50;1.90;;;8.40;99.90;;;;;;5094841;28;20900;-68
2021/04/27 01:34:28;;;;;;;3.43;2.40;;;8.40;99.90;;;;;;5095064;28;20427;-67
2021/04/27 01:36:54;;;;;;;4.25;2.47;;;8.30;99.90;;;;;;5094975;28;20439;-67
2021/04/27 01:39:25;;;;;;;2.83;2.13;;;8.40;99.90;;;;;;5094729;28;20164;-68
2021/04/27 01:41:52;;;;;;;2.57;2.37;;;8.60;99.90;;;;;;5094997;28;20847;-68
2021/04/27 01:44:18;;;;;;;2.95;2.30;;;8.30;99.90;;;;;;5094839;28;20426;-68
2021/04/27 01:46:44;;;;;;;3.33;2.35;;;8.40;99.90;;;;;;5094597;28;20179;-67
2021/04/27 01:49:12;;;;;;;2.90;1.80;;;8.40;99.90;;;;;;5094027;28;20169;-67
2021/04/27 01:51:38;;;;;;;9.03;2.40;;;8.30;99.90;;;;;;5094799;28;20408;-68
2021/04/27 01:54:04;;;;;;;4.13;2.33;;;8.40;99.90;;;;;;5094387;28;20431;-67
2021/04/27 01:56:30;;;;;;;4.60;2.10;;;8.30;99.90;;;;;;5094516;28;20807;-67
2021/04/27 01:58:56;;;;;;;3.30;2.07;;;8.30;99.90;;;;;;5094337;28;20742;-68
2021/04/27 02:01:22;;;;;;;3.73;2.40;;;8.40;99.90;;;;;;5094279;28;20163;-68
2021/04/27 02:03:48;;;;;;;5.37;2.70;;;8.30;99.90;;;;;;5094431;28;20934;-68
2021/04/27 02:06:14;;;;;;;4.77;2.30;;;8.30;99.90;;;;;;5094321;28;20250;-67
2021/04/27 02:08:47;;;;;;;3.88;2.00;;;8.40;99.90;;;;;;5094120;28;20427;-66
2021/04/27 02:11:13;;;;;;;3.73;2.27;;;8.30;99.90;;;;;;5094514;28;20156;-68
2021/04/27 02:13:40;;;;;;;4.77;2.23;;;8.20;99.90;;;;;;5094126;28;20438;-68
2021/04/27 02:16:06;;;;;;;4.00;2.10;;;8.20;99.90;;;;;;5094503;28;20203;-67
2021/04/27 02:18:52;;;;;;;2.17;1.87;;;8.00;99.90;;;;;;5093745;28;20427;-67
2021/04/27 02:21:18;;;;;;;4.00;2.20;;;8.00;99.90;;;;;;5095004;28;20382;-67
2021/04/27 02:23:44;;;;;;;4.57;2.23;;;8.10;99.90;;;;;;5094149;28;20444;-68
2021/04/27 02:26:13;;;;;;;3.28;2.22;;;8.10;99.90;;;;;;5094076;28;20410;-67
2021/04/27 02:28:41;;;;;;;3.42;2.10;;;8.20;99.90;;;;;;5094025;28;20164;-68
2021/04/27 02:31:06;;;;;;;3.92;1.88;;;8.00;99.90;;;;;;5094010;28;20169;-68
2021/04/27 02:33:34;;;;;;;3.40;2.03;;;8.10;99.90;;;;;;5093868;28;20246;-68
2021/04/27 02:36:00;;;;;;;3.93;1.70;;;7.90;99.90;;;;;;5093833;28;20239;-68
2021/04/27 02:38:25;;;;;;;11.23;2.13;;;7.90;99.90;;;;;;5093837;28;20442;-67
2021/04/27 02:40:53;;;;;;;8.67;2.37;;;7.80;99.90;;;;;;5093772;28;20172;-67
2021/04/27 02:43:19;;;;;;;6.18;2.03;;;7.90;99.90;;;;;;5093653;28;20192;-67
2021/04/27 02:45:45;;;;;;;11.63;6.50;;;7.60;99.90;;;;;;5093695;28;20167;-67
2021/04/27 02:48:13;;;;;;;2.97;2.15;;;7.80;99.90;;;;;;5093900;28;20171;-67
2021/04/27 02:50:46;;;;;;;6.78;2.30;;;8.10;99.90;;;;;;5093895;28;20175;-67
2021/04/27 02:53:12;;;;;;;3.60;2.22;;;7.90;99.90;;;;;;5093816;28;20156;-68
2021/04/27 02:55:38;;;;;;;3.77;1.80;;;7.80;99.90;;;;;;5093429;28;20198;-68
2021/04/27 02:58:04;;;;;;;3.90;1.97;;;7.80;99.90;;;;;;5093461;28;20394;-67
2021/04/27 03:00:30;;;;;;;3.40;1.80;;;7.80;99.90;;;;;;5092477;28;20454;-68
2021/04/27 03:02:55;;;;;;;2.43;2.17;;;7.90;99.90;;;;;;5093233;28;20171;-68
2021/04/27 03:05:21;;;;;;;5.73;2.23;;;7.60;99.90;;;;;;5093728;28;20377;-67
2021/04/27 03:07:47;;;;;;;5.10;2.30;;;7.70;99.90;;;;;;5093023;28;20183;-68
2021/04/27 03:10:13;;;;;;;5.50;1.75;;;7.80;99.90;;;;;;5093125;28;20160;-68
2021/04/27 03:12:39;;;;;;;5.67;2.50;;;7.80;99.90;;;;;;5093641;28;20607;-68
2021/04/27 03:15:07;;;;;;;6.28;2.47;;;7.60;99.90;;;;;;5092981;28;20425;-68
2021/04/27 03:17:33;;;;;;;5.18;2.10;;;7.80;99.90;;;;;;5093289;28;20187;-68
2021/04/27 03:19:58;;;;;;;2.90;2.00;;;7.70;99.90;;;;;;5093088;28;20684;-68
2021/04/27 03:22:24;;;;;;;2.63;2.03;;;7.80;99.90;;;;;;5092940;28;20172;-67
2021/04/27 03:24:49;;;;;;;4.27;2.10;;;7.80;99.90;;;;;;5092998;28;20183;-67
2021/04/27 03:27:15;;;;;;;2.80;1.90;;;7.80;99.90;;;;;;5092931;28;20696;-68
2021/04/27 03:29:41;;;;;;;2.37;1.97;;;8.10;99.90;;;;;;5092851;28;20171;-67
2021/04/27 03:32:07;;;;;;;7.30;2.00;;;7.80;99.90;;;;;;5092905;28;20677;-67
2021/04/27 03:34:32;;;;;;;2.17;1.90;;;7.80;99.90;;;;;;5092811;28;20191;-68
2021/04/27 03:36:57;;;;;;;3.53;1.80;;;7.60;99.90;;;;;;5092933;28;20491;-67
2021/04/27 03:39:23;;;;;;;4.50;2.20;;;7.70;99.90;;;;;;5093300;28;20167;-68
2021/04/27 03:41:49;;;;;;;3.23;2.10;;;7.70;99.90;;;;;;5093046;28;20221;-67
2021/04/27 03:44:14;;;;;;;2.47;2.13;;;7.80;99.90;;;;;;5093150;28;20675;-67
2021/04/27 03:46:40;;;;;;;12.13;2.60;;;7.70;99.90;;;;;;5093003;28;20684;-68
2021/04/27 03:49:05;;;;;;;3.90;2.30;;;7.80;99.90;;;;;;5093103;28;20176;-67
2021/04/27 03:51:31;;;;;;;2.40;1.90;;;7.80;99.90;;;;;;5093005;28;20167;-68
2021/04/27 03:53:56;;;;;;;1.93;1.60;;;7.90;99.90;;;;;;5092631;28;20695;-67
2021/04/27 03:56:22;;;;;;;4.10;2.13;;;7.80;99.90;;;;;;5092587;28;20199;-68
2021/04/27 03:58:48;;;;;;;3.17;2.23;;;7.60;99.90;;;;;;5092681;28;20174;-67
2021/04/27 04:01:13;;;;;;;6.63;2.27;;;7.40;99.90;;;;;;5092686;28;20157;-67
2021/04/27 04:03:40;;;;;;;3.07;1.60;;;7.20;99.90;;;;;;5092560;28;20266;-67
2021/04/27 04:06:05;;;;;;;4.03;1.55;;;7.30;99.90;;;;;;5092555;28;20216;-67
2021/04/27 04:08:32;;;;;;;11.00;2.53;;;7.40;99.90;;;;;;5092376;28;20191;-68
2021/04/27 04:10:58;;;;;;;3.10;2.17;;;7.60;99.90;;;;;;5093396;28;20178;-67
2021/04/27 04:13:23;;;;;;;2.57;1.97;;;7.60;99.90;;;;;;5096428;28;20188;-67
2021/04/27 04:15:49;;;;;;;3.00;2.30;;;7.60;99.90;;;;;;5096609;28;20192;-67
2021/04/27 04:18:14;;;;;;;2.43;1.67;;;7.30;99.90;;;;;;5096650;28;20647;-67
2021/04/27 04:20:40;;;;;;;3.67;1.73;;;7.10;99.90;;;;;;5096402;28;20627;-67
2021/04/27 04:23:05;;;;;;;2.40;1.60;;;7.20;99.90;;;;;;5096201;28;20164;-67
2021/04/27 04:25:31;;;;;;;3.30;1.80;;;7.00;99.90;;;;;;5096201;28;20187;-67
2021/04/27 04:27:56;;;;;;;5.53;1.90;;;7.20;99.90;;;;;;5096074;28;20614;-67
2021/04/27 04:30:24;;;;;;;2.13;1.60;;;7.60;99.90;;;;;;5096331;28;20554;-67
2021/04/27 04:32:53;;;;;;;2.30;1.35;;;7.10;99.90;;;;;;5095968;28;20171;-67
2021/04/27 04:35:21;;;;;;;2.95;1.65;;;7.00;99.90;;;;;;5095950;28;20188;-67
2021/04/27 04:37:47;;;;;;;2.22;1.73;;;6.90;99.90;;;;;;5096258;28;20172;-67
2021/04/27 04:40:14;;;;;;;6.75;1.92;;;6.80;99.90;;;;;;5095936;28;20167;-67
2021/04/27 04:42:41;;;;;;;5.18;2.50;;;6.90;99.90;;;;;;5096108;28;20236;-67
2021/04/27 04:45:08;;;;;;;3.75;2.13;;;7.20;99.90;;;;;;5095607;28;20237;-67
2021/04/27 04:47:34;;;;;;;2.55;1.95;;;7.10;99.90;;;;;;5095591;28;20250;-67
2021/04/27 04:50:00;;;;;;;2.30;1.53;;;6.80;99.90;;;;;;5095686;28;20683;-67
2021/04/27 04:52:26;;;;;;;2.00;1.50;;;6.90;99.90;;;;;;5095602;28;20409;-68
2021/04/27 04:54:51;;;;;;;5.27;2.83;;;7.30;99.90;;;;;;5095481;28;20191;-67
2021/04/27 04:57:17;;;;;;;2.20;1.60;;;7.00;99.90;;;;;;5095337;28;20419;-67
2021/04/27 04:59:42;;;;;;;2.20;1.43;;;6.90;99.90;;;;;;5095699;28;20167;-67
2021/04/27 05:02:08;;;;;;;6.23;1.87;;;6.70;99.90;;;;;;5095732;28;20213;-67
2021/04/27 05:04:33;;;;;;;11.70;8.07;;;6.80;99.90;;;;;;5095227;28;20188;-67
2021/04/27 05:07:04;;;;;;;2.83;1.80;;;7.10;99.90;;;;;;5095570;28;20163;-67
2021/04/27 05:09:30;;;;;;;3.05;1.90;;;6.90;99.90;;;;;;5095287;28;20297;-67
2021/04/27 05:11:56;;;;;;;6.83;2.30;;;7.00;99.90;;;;;;5095082;28;20187;-66
2021/04/27 05:14:22;;;;;;;3.97;1.83;;;7.10;99.90;;;;;;5095017;28;20217;-65
2021/04/27 05:16:48;;;;;;;3.90;2.10;;;7.20;99.90;;;;;;5095612;28;20203;-68
2021/04/27 05:19:14;;;;;;;2.43;1.80;;;7.20;99.90;;;;;;5095247;28;20406;-66
2021/04/27 05:21:41;;;;;;;3.55;1.80;;;7.10;99.90;;;;;;5095358;28;20201;-66
2021/04/27 05:24:07;;;;;;;4.22;2.10;;;7.30;99.90;;;;;;5094180;28;20248;-66
2021/04/27 05:26:33;;;;;;;3.65;1.85;;;7.40;99.90;;;;;;5094695;28;20262;-67
2021/04/27 05:28:59;;;;;;;3.10;2.00;;;7.40;99.90;;;;;;5094955;28;20257;-67
2021/04/27 05:31:25;;;;;;;4.57;2.40;;;7.20;99.90;;;;;;5094860;28;20226;-67
2021/04/27 05:33:50;;;;;;;3.50;1.90;;;7.40;99.90;;;;;;5094642;28;20547;-66
2021/04/27 05:36:16;;;;;;;4.07;2.27;;;7.50;99.90;;;;;;5094573;28;20199;-67
2021/04/27 05:38:42;;;;;;;4.23;2.47;;;7.60;99.90;;;;;;5094435;28;20186;-66
2021/04/27 05:41:08;;;;;;;1.90;1.70;;;7.70;99.90;;;;;;5094416;28;20656;-66
2021/04/27 05:43:33;;;;;;;3.20;1.87;;;7.50;99.90;;;;;;5094323;28;20326;-64
2021/04/27 05:45:59;;;;;;;4.80;2.20;;;7.80;99.90;;;;;;5094180;28;20206;-66
2021/04/27 05:48:24;;;;;;;6.13;2.27;;;8.10;99.90;;;;;;5094079;28;20175;-66
2021/04/27 05:50:50;;;;;;;3.20;1.63;;;8.00;99.90;;;;;;5094109;28;20175;-66
2021/04/27 05:53:16;;;;;;;9.43;2.00;;;7.70;99.90;;;;;;5094092;28;20191;-67
2021/04/27 05:55:41;;;;;;;3.33;1.87;;;8.00;99.90;;;;;;5094297;28;20609;-66
2021/04/27 05:58:08;;;;;;;4.50;2.10;;;8.30;99.90;;;;;;5094327;28;20222;-67
2021/04/27 06:00:34;;;;;;;4.03;1.70;;;8.30;99.90;;;;;;5093995;28;20172;-66
2021/04/27 06:03:00;;;;;;;2.60;1.53;;;8.50;99.90;;;;;;5093922;28;20752;-66
2021/04/27 06:05:25;;;;;;;2.40;1.43;;;8.50;99.90;;;;;;5094258;28;20488;-67
2021/04/27 06:07:51;;;;;;;5.87;2.37;;;8.70;99.90;;;;;;5093909;28;20173;-67
2021/04/27 06:10:16;;;;;;;3.77;2.00;;;8.70;99.90;;;;;;5094603;28;20209;-67
2021/04/27 06:12:42;;;;;;;2.47;1.67;;;8.60;99.90;;;;;;5094253;28;20175;-66
2021/04/27 06:15:08;;;;;;;5.13;1.80;;;8.70;99.90;;;;;;5094104;28;20570;-66
2021/04/27 06:17:35;;;;;;;4.67;1.77;;;9.00;99.90;;;;;;5094139;28;20328;-67
2021/04/27 06:20:04;;;;;;;4.80;1.97;;;9.30;99.90;;;;;;5093597;28;20834;-67
2021/04/27 06:22:30;;;;;;;3.87;2.17;;;9.30;99.90;;;;;;5093847;28;20411;-66
2021/04/27 06:24:55;;;;;;;10.40;2.20;;;9.20;99.90;;;;;;5093654;28;20487;-68
2021/04/27 06:27:23;;;;;;;4.97;2.97;;;9.20;99.90;;;;;;5093877;28;20576;-67
2021/04/27 06:29:50;;;;;;;6.83;2.27;;;9.40;99.90;;;;;;5093508;28;20262;-67
2021/04/27 06:32:15;;;;;;;2.00;1.20;;;9.50;99.90;;;;;;5093947;28;20441;-67
2021/04/27 06:34:41;;;;;;;2.10;1.70;;;9.50;99.90;;;;;;5093742;28;20976;-67
2021/04/27 06:37:07;;;;;;;3.57;1.80;;;9.50;99.90;;;;;;5093735;28;20504;-67
2021/04/27 06:39:32;;;;;;;6.03;1.43;;;9.60;99.90;;;;;;5093448;28;20175;-68
2021/04/27 06:41:58;;;;;;;5.93;2.40;;;9.60;99.90;;;;;;5093092;28;20647;-67
2021/04/27 06:44:23;;;;;;;2.30;1.57;;;9.70;99.90;;;;;;5093438;28;20630;-68
2021/04/27 06:46:49;;;;;;;2.63;1.90;;;9.80;99.90;;;;;;5093389;28;20541;-67
2021/04/27 06:49:15;;;;;;;4.63;1.80;;;10.00;99.90;;;;;;5093646;28;20183;-67
2021/04/27 06:51:40;;;;;;;7.03;2.33;;;9.80;99.90;;;;;;5093797;28;20466;-67
2021/04/27 06:54:06;;;;;;;4.93;2.00;;;10.00;99.90;;;;;;5093467;28;20567;-67
2021/04/27 06:56:32;;;;;;;3.50;1.93;;;10.10;99.90;;;;;;5093152;28;20285;-67
2021/04/27 06:58:57;;;;;;;4.40;2.00;;;10.10;99.90;;;;;;5093174;28;20171;-67
2021/04/27 07:01:23;;;;;;;2.37;2.00;;;10.20;99.90;;;;;;5093105;28;20220;-68
2021/04/27 07:03:49;;;;;;;2.50;1.70;;;10.20;99.90;;;;;;5093107;28;20224;-68
2021/04/27 07:06:15;;;;;;;9.70;1.67;;;10.20;99.90;;;;;;5093327;28;20652;-67
2021/04/27 07:08:41;;;;;;;2.17;1.60;;;10.30;99.90;;;;;;5093112;28;20272;-67
2021/04/27 07:11:07;;;;;;;2.30;1.80;;;10.50;99.90;;;;;;5091627;28;20421;-67
2021/04/27 07:13:33;;;;;;;5.80;2.40;;;10.30;99.90;;;;;;5093475;28;20436;-67
2021/04/27 07:15:59;;;;;;;6.87;1.70;;;10.50;99.90;;;;;;5093163;28;20620;-67
2021/04/27 07:18:25;;;;;;;2.60;1.80;;;10.50;99.90;;;;;;5092973;28;20254;-67
2021/04/27 07:20:51;;;;;;;7.90;2.00;;;10.70;99.90;;;;;;5092748;28;20501;-67
2021/04/27 07:23:17;;;;;;;3.13;2.00;;;10.80;99.90;;;;;;5092850;28;20422;-67
2021/04/27 07:25:43;;;;;;;6.37;2.23;;;10.80;99.90;;;;;;5092851;28;20277;-67
2021/04/27 07:28:08;;;;;;;4.60;1.70;;;10.90;99.90;;;;;;5092840;28;20774;-68
2021/04/27 07:30:35;;;;;;;12.00;2.23;;;10.90;99.90;;;;;;5093165;28;20405;-67
2021/04/27 07:33:01;;;;;;;2.37;1.70;;;11.00;99.90;;;;;;5093660;28;20183;-67
2021/04/27 07:35:27;;;;;;;5.63;2.20;;;10.90;99.90;;;;;;5092606;28;20499;-67
2021/04/27 07:37:53;;;;;;;2.80;1.80;;;11.00;99.90;;;;;;5092557;28;20755;-66
2021/04/27 07:40:19;;;;;;;5.40;1.83;;;11.10;99.90;;;;;;5092989;28;20420;-66
2021/04/27 07:42:45;;;;;;;2.40;1.50;;;11.20;99.90;;;;;;5092611;28;20542;-67
2021/04/27 07:45:12;;;;;;;4.63;1.80;;;11.30;99.90;;;;;;5092923;28;20819;-67
2021/04/27 07:47:38;;;;;;;4.43;2.30;;;11.50;99.90;;;;;;5096082;28;20824;-67
2021/04/27 07:50:06;;;;;;;5.53;2.37;;;11.50;99.90;;;;;;5095391;28;20458;-67
2021/04/27 07:52:33;;;;;;;6.10;2.20;;;11.60;99.90;;;;;;5096779;28;20195;-67
2021/04/27 07:54:59;;;;;;;2.60;1.80;;;11.50;99.90;;;;;;5096641;28;20429;-67
2021/04/27 07:57:25;;;;;;;6.90;2.13;;;11.60;99.90;;;;;;5096216;28;20449;-68
2021/04/27 07:59:50;;;;;;;3.90;1.57;;;11.80;99.90;;;;;;5095718;28;20198;-68
2021/04/27 08:02:16;;;;;;;3.63;1.73;;;12.00;99.90;;;;;;5096969;28;20168;-68
2021/04/27 08:04:41;;;;;;;3.90;1.73;;;11.90;99.90;;;;;;5096249;28;20240;-67
2021/04/27 08:07:07;;;;;;;3.60;1.70;;;12.00;99.90;;;;;;5096276;28;20220;-66
2021/04/27 08:09:32;;;;;;;10.47;1.90;;;12.10;99.90;;;;;;5096124;28;20652;-67
2021/04/27 08:11:58;;;;;;;2.90;2.30;;;12.20;99.90;;;;;;5096404;28;20186;-67
2021/04/27 08:14:23;;;;;;;4.50;2.00;;;12.20;99.90;;;;;;5096222;28;20564;-67
2021/04/27 08:16:49;;;;;;;4.70;2.00;;;12.20;99.90;;;;;;5096607;28;20695;-67
2021/04/27 08:19:15;;;;;;;3.33;1.87;;;12.20;99.90;;;;;;5096162;28;20159;-67
2021/04/27 08:21:41;;;;;;;8.87;2.30;;;12.20;99.90;;;;;;5095991;28;20195;-67
2021/04/27 08:24:07;;;;;;;3.03;2.27;;;12.40;99.90;;;;;;5096100;28;20822;-67
2021/04/27 08:26:33;;;;;;;4.47;2.17;;;12.50;99.90;;;;;;5096133;28;20405;-67
2021/04/27 08:28:58;;;;;;;5.20;2.10;;;12.70;99.90;;;;;;5095997;28;20863;-67
2021/04/27 08:31:24;;;;;;;2.70;2.30;;;12.90;99.90;;;;;;5095628;28;20521;-67
2021/04/27 08:33:50;;;;;;;5.57;2.10;;;13.00;99.90;;;;;;5095322;28;20187;-67
2021/04/27 08:36:16;;;;;;;5.60;3.00;;;12.60;99.90;;;;;;5095391;28;20199;-68
2021/04/27 08:38:41;;;;;;;4.00;2.00;;;12.90;99.90;;;;;;5095206;28;20672;-65
2021/04/27 08:41:07;;;;;;;3.50;1.83;;;13.00;99.90;;;;;;5094807;28;20408;-67
2021/04/27 08:43:33;;;;;;;3.83;2.03;;;13.10;99.90;;;;;;5096044;28;20422;-66
2021/04/27 08:45:59;;;;;;;3.30;2.07;;;13.30;99.90;;;;;;5095612;28;20408;-67
2021/04/27 08:48:25;;;;;;;4.70;2.20;;;13.50;99.90;;;;;;5095866;28;20486;-66
2021/04/27 08:50:52;;;;;;;3.53;2.40;;;13.40;99.90;;;;;;5095242;28;20180;-69
2021/04/27 08:53:18;;;;;;;5.90;2.50;;;13.40;99.90;;;;;;5095334;28;20420;-67
2021/04/27 08:55:43;;;;;;;4.70;3.27;;;13.60;99.90;;;;;;5095220;28;20977;-68
2021/04/27 08:58:11;;;;;;;5.80;3.17;;;13.90;99.90;;;;;;5094122;28;20497;-67
2021/04/27 09:00:38;;;;;;;4.00;2.90;;;14.10;99.90;;;;;;5095279;28;20160;-67
2021/04/27 09:03:06;;;;;;;10.63;6.50;;;14.10;99.90;;;;;;5095369;28;20902;-68
2021/04/27 09:05:34;;;;;;;3.00;2.03;;;14.20;99.90;;;;;;5095437;28;20793;-68
2021/04/27 09:08:01;;;;;;;2.27;1.67;;;13.80;99.90;;;;;;5095300;28;20417;-67
2021/04/27 09:10:29;;;;;;;3.20;1.77;;;13.90;99.90;;;;;;5095287;28;20397;-67
2021/04/27 09:12:57;;;;;;;3.97;2.27;;;14.20;99.90;;;;;;5095421;28;20410;-67
2021/04/27 09:15:28;;;;;;;4.90;2.43;;;14.40;99.90;;;;;;5095227;28;20910;-67
2021/04/27 09:17:55;;;;;;;6.80;3.20;;;14.50;99.90;;;;;;5095499;28;20378;-68
2021/04/27 09:20:21;;;;;;;4.77;1.80;;;14.60;99.90;;;;;;5093437;28;20402;-68
2021/04/27 09:22:46;;;;;;;3.80;2.23;;;14.60;99.90;;;;;;5095045;28;20750;-68
2021/04/27 09:25:13;;;;;;;4.03;1.83;;;14.70;99.90;;;;;;5094828;28;20419;-68
2021/04/27 09:27:45;;;;;;;2.80;1.90;;;15.00;99.90;;;;;;5095093;28;20260;-67
2021/04/27 09:30:24;;;;;;;11.53;2.63;;;15.20;99.90;;;;;;5095014;28;20392;-67
2021/04/27 09:32:54;;;;;;;3.70;2.63;;;15.40;99.90;;;;;;5095051;28;20764;-67
2021/04/27 09:35:33;;;;;;;18.23;3.27;;;14.70;99.90;;;;;;5094933;28;20403;-67
2021/04/27 09:38:20;;;;;;;6.23;2.53;;;14.80;99.90;;;;;;5094767;28;20431;-67
2021/04/27 09:40:58;;;;;;;3.07;2.77;;;15.30;99.90;;;;;;5095027;28;20431;-68
2021/04/27 09:43:29;;;;;;;4.93;2.50;;;15.60;99.90;;;;;;5094722;28;20423;-68
2021/04/27 09:45:56;;;;;;;8.97;2.63;;;15.60;99.90;;;;;;5094821;28;20882;-68
2021/04/27 09:48:39;;;;;;;4.10;2.10;;;15.90;99.90;;;;;;5094436;28;20411;-67
2021/04/27 09:51:13;;;;;;;5.47;1.83;;;15.80;99.90;;;;;;5095179;28;20408;-67
2021/04/27 09:53:59;;;;;;;3.20;2.30;;;15.80;99.90;;;;;;5094675;28;20480;-68
2021/04/27 09:56:42;;;;;;;3.30;2.20;;;15.90;99.90;;;;;;5094641;28;20433;-68
2021/04/27 09:59:25;;;;;;;2.57;2.13;;;16.40;99.90;;;;;;5094452;28;20399;-68
2021/04/27 10:01:56;;;;;;;6.33;2.47;;;16.20;99.90;;;;;;5094703;28;20773;-68
2021/04/27 10:04:24;;;;;;;3.00;2.73;;;15.90;99.90;;;;;;5092669;28;20429;-67
2021/04/27 10:06:50;;;;;;;5.07;2.57;;;15.40;99.90;;;;;;5093920;28;20843;-66
2021/04/27 10:09:16;;;;;;;3.30;2.00;;;16.10;99.90;;;;;;5093589;28;20957;-68
2021/04/27 10:11:43;;;;;;;4.87;2.10;;;16.60;99.90;;;;;;5094335;28;20405;-67
2021/04/27 10:14:10;;;;;;;5.27;2.50;;;16.40;99.90;;;;;;5094067;28;20787;-67
2021/04/27 10:16:37;;;;;;;2.73;2.17;;;16.60;99.90;;;;;;5093822;28;20446;-68
2021/04/27 10:19:04;;;;;;;6.70;2.70;;;16.90;99.90;;;;;;5093951;28;20482;-68
2021/04/27 10:21:30;;;;;;;3.50;2.50;;;16.50;99.90;;;;;;5094018;28;20394;-68
2021/04/27 10:23:59;;;;;;;4.03;2.70;;;16.90;99.90;;;;;;5093786;28;20787;-68
2021/04/27 10:26:27;;;;;;;3.20;2.20;;;16.90;99.90;;;;;;5094109;28;20434;-68
2021/04/27 10:29:07;;;;;;;4.67;2.57;;;17.20;99.90;;;;;;5094273;28;20406;-67
2021/04/27 10:31:38;;;;;;;4.70;2.00;;;17.20;99.90;;;;;;5094183;28;20405;-67
2021/04/27 10:34:07;;;;;;;7.27;2.47;;;16.50;99.90;;;;;;5093396;28;20436;-68
2021/04/27 10:36:49;;;;;;;3.60;2.20;;;16.70;99.90;;;;;;5093585;28;20503;-68
2021/04/27 10:39:15;;;;;;;4.40;2.67;;;16.50;99.90;;;;;;5093476;28;20396;-68
2021/04/27 10:41:57;;;;;;;4.90;2.57;;;17.20;99.90;;;;;;5093376;28;20436;-68
2021/04/27 10:44:23;;;;;;;3.03;2.67;;;17.80;99.90;;;;;;5093475;28;20447;-68
2021/04/27 10:47:00;;;;;;;4.70;2.43;;;18.00;99.90;;;;;;5093260;28;20418;-68
2021/04/27 10:49:32;;;;;;;3.70;2.83;;;18.30;99.90;;;;;;5093081;28;20399;-68
2021/04/27 10:52:00;;;;;;;3.63;2.83;;;18.10;99.90;;;;;;5092441;28;20393;-68
2021/04/27 10:54:37;;;;;;;5.80;2.30;;;18.20;99.90;;;;;;5093253;28;20431;-67
2021/04/27 10:57:05;;;;;;;4.33;3.03;;;18.10;99.90;;;;;;5092482;28;20968;-68
2021/04/27 10:59:50;;;;;;;4.77;2.80;;;18.30;99.90;;;;;;5093956;28;20404;-68
2021/04/27 11:02:25;;;;;;;2.70;2.00;;;18.30;99.90;;;;;;5093338;28;20473;-68
2021/04/27 11:04:56;;;;;;;4.70;2.50;;;18.00;99.90;;;;;;5092843;28;20417;-68
2021/04/27 11:07:22;;;;;;;4.43;3.00;;;17.80;99.90;;;;;;5093321;28;20393;-69
2021/04/27 11:10:04;;;;;;;3.77;2.50;;;18.40;99.90;;;;;;5092707;28;20815;-67
2021/04/27 11:12:40;;;;;;;2.70;2.10;;;19.20;99.90;;;;;;5093029;28;20174;-68
2021/04/27 11:15:11;;;;;;;5.33;2.30;;;19.20;99.90;;;;;;5092559;28;20797;-68
2021/04/27 11:17:39;;;;;;;4.27;3.30;;;18.90;99.90;;;;;;5092446;28;20473;-67
2021/04/27 11:20:10;;;;;;;6.70;2.73;;;18.60;99.90;;;;;;5092392;28;20405;-68
2021/04/27 11:22:49;;;;;;;4.70;3.03;;;19.00;99.90;;;;;;5093176;28;20402;-67
2021/04/27 11:25:32;;;;;;;8.00;2.23;;;18.70;99.90;;;;;;5091946;28;20431;-68
2021/04/27 11:27:58;;;;;;;5.00;2.90;;;19.60;99.90;;;;;;5092688;28;20871;-67
2021/04/27 11:30:33;;;;;;;3.13;2.30;;;19.90;99.90;;;;;;5093009;28;20414;-68
2021/04/27 11:33:03;;;;;;;4.60;3.50;;;19.90;99.90;;;;;;5092294;28;20392;-68
2021/04/27 11:35:42;;;;;;;4.40;3.50;;;20.00;99.90;;;;;;5092352;28;20416;-68
2021/04/27 11:38:08;;;;;;;4.83;2.73;;;20.00;99.90;;;;;;5092396;28;20436;-68
2021/04/27 11:40:38;;;;;;;5.73;3.10;;;20.40;99.90;;;;;;5092627;28;20813;-68
2021/04/27 11:43:10;;;;;;;4.27;2.90;;;20.30;99.90;;;;;;5092635;28;20415;-67
2021/04/27 11:45:39;;;;;;;5.03;2.60;;;20.40;99.90;;;;;;5092817;28;20433;-68
2021/04/27 11:48:08;;;;;;;6.07;2.60;;;20.10;99.90;;;;;;5092785;28;20497;-68
2021/04/27 11:50:34;;;;;;;8.30;2.90;;;20.50;99.90;;;;;;5093022;28;20502;-66
2021/04/27 11:53:05;;;;;;;18.10;4.30;;;20.40;99.90;;;;;;5093258;28;20804;-69
2021/04/27 11:55:30;;;;;;;4.07;2.90;;;20.50;99.90;;;;;;5092408;28;20521;-67
2021/04/27 11:58:15;;;;;;;4.33;2.60;;;20.00;99.90;;;;;;5092268;28;20412;-67
2021/04/27 12:00:48;;;;;;;4.13;2.47;;;19.60;99.90;;;;;;5092180;28;20158;-68
2021/04/27 12:03:29;;;;;;;8.13;3.93;;;20.60;99.90;;;;;;5091015;28;20417;-67
2021/04/27 12:06:12;;;;;;;6.20;2.40;;;19.80;99.90;;;;;;5092394;28;20404;-67
2021/04/27 12:08:49;;;;;;;4.10;2.93;;;20.30;99.90;;;;;;5092254;28;20418;-67
2021/04/27 12:11:22;;;;;;;3.67;2.87;;;20.80;99.90;;;;;;5092624;28;20427;-67
2021/04/27 12:14:00;;;;;;;4.63;2.50;;;21.60;99.90;;;;;;5092638;28;20517;-67
2021/04/27 12:16:31;;;;;;;4.70;2.40;;;21.30;99.90;;;;;;5092316;28;20948;-67
2021/04/27 12:19:02;;;;;;;4.53;2.77;;;21.10;99.90;;;;;;5092580;28;20389;-67
2021/04/27 12:21:31;;;;;;;3.50;2.47;;;20.60;99.90;;;;;;5092727;28;20384;-67
2021/04/27 12:24:15;;;;;;;4.17;3.43;;;21.40;99.90;;;;;;5092559;28;21002;-67
2021/04/27 12:26:51;;;;;;;4.03;2.73;;;21.30;99.90;;;;;;5092316;28;20756;-67
2021/04/27 12:29:24;;;;;;;4.13;2.70;;;21.60;99.90;;;;;;5092399;28;20470;-69
2021/04/27 12:31:49;;;;;;;3.23;2.70;;;21.70;99.90;;;;;;5093058;28;20486;-67
2021/04/27 12:34:16;;;;;;;7.20;3.90;;;21.60;99.90;;;;;;5096265;28;20434;-68
2021/04/27 12:36:46;;;;;;;3.67;2.90;;;20.90;99.90;;;;;;5096095;28;20205;-67
2021/04/27 12:39:18;;;;;;;5.03;2.90;;;20.80;99.90;;;;;;5095927;28;20405;-67
2021/04/27 12:41:44;;;;;;;3.40;1.90;;;22.00;99.90;;;;;;5096071;28;20405;-67
2021/04/27 12:44:38;;;;;;;2.80;2.50;;;22.40;99.90;;;;;;5095751;28;20823;-69
2021/04/27 12:47:17;;;;;;;5.47;2.63;;;22.50;99.90;;;;;;5095878;28;20378;-67
2021/04/27 12:49:43;;;;;;;5.50;2.50;;;22.50;99.90;;;;;;5096009;28;20382;-67
2021/04/27 12:52:14;;;;;;;3.03;2.60;;;22.10;99.90;;;;;;5095663;28;20404;-68
2021/04/27 12:54:41;;;;;;;4.07;2.90;;;20.90;99.90;;;;;;5095533;28;20423;-68
2021/04/27 12:57:12;;;;;;;4.33;2.90;;;20.60;99.90;;;;;;5095341;28;20510;-68